Heydar Aliyev — 9HFS7 — position and weather

sailwx.info

Track history (hours):
 
Tides and Currents Weather Stations Pressure Air Temp Water Temp Dewpoint Dewpoint Depression Visibility Wind Speed Wind Dir Waves Ship Positions

Heydar Aliyev

Last reported at 2016-Sep-28 08:33 UTC. Time now 2016-Sep-29 17:04 UTC.
Position N 40°49' E 028°57'.

Length 274 m; draft 9.4 m.

Type: Tanker. MMSI: 215213000.

Date/timePositionNaut miles runAvg speedWind from/ knotsBaromVisibWave heightAir tempDewpointWater temp
2016-Sep-28 08:33N 40°49' E 028°57'1 0.1
2016-Sep-28 03:33N 40°48' E 028°57'1 1.0
2016-Sep-28 02:31N 40°47' E 028°56'1 1.0
2016-Sep-28 01:33N 40°48' E 028°57'1 0.7
2016-Sep-27 23:33N 40°49' E 028°58'  
2016-Sep-21 09:33N 40°44' E 029°22'1111.0
2016-Sep-21 08:31N 40°45' E 029°37'19 0.5
2016-Sep-19 19:33N 40°44' E 029°11'2 1.9
2016-Sep-19 18:33N 40°45' E 029°09'10 4.6
2016-Sep-19 16:27N 40°50' E 028°58'  
Track history (hours):
 
Tides and Currents Weather Stations Pressure Air Temp Water Temp Dewpoint Dewpoint Depression Visibility Wind Speed Wind Dir Waves Ship Positions

Heydar Aliyev

Last reported at 2016-Sep-28 08:33 UTC. Time now 2016-Sep-29 17:04 UTC.
Position N 40°49' E 028°57'.

Length 274 m; draft 9.4 m.

Type: Tanker. MMSI: 215213000.

Date/timePositionNaut miles runAvg speedWind from/ knotsBaromVisibWave heightAir tempDewpointWater temp
2016-Sep-28 08:33N 40°49' E 028°57'1 0.1
2016-Sep-28 03:33N 40°48' E 028°57'1 1.0
2016-Sep-28 02:31N 40°47' E 028°56'1 1.0
2016-Sep-28 01:33N 40°48' E 028°57'1 0.7
2016-Sep-27 23:33N 40°49' E 028°58'  
2016-Sep-21 09:33N 40°44' E 029°22'1111.0
2016-Sep-21 08:31N 40°45' E 029°37'19 0.5
2016-Sep-19 19:33N 40°44' E 029°11'2 1.9
2016-Sep-19 18:33N 40°45' E 029°09'10 4.6
2016-Sep-19 16:27N 40°50' E 028°58'  

Dump ship's entire track history